Time;durP1;ratioP1;P1;durP2;ratioP2;P2;SDS_P1;SDS_P2;PMS_P1;PMS_P2;Temp;Humidity;BMP_temperature;BMP_pressure;BME280_temperature;BME280_humidity;BME280_pressure;Samples;Min_cycle;Max_cycle;Signal;HPM_P1;HPM_P2
2021/09/17 00:02:49;;;;;;;;;;;;;;;;;;;;;
2021/09/17 00:07:27;;;;;;;24.50;20.40;;;;;;;17.95;81.23;99577.07;111949;1219;107878;-75
2021/09/17 00:11:33;;;;;;;21.70;17.90;;;;;;;17.95;81.31;99574.80;111652;1223;108499;-75
2021/09/17 00:23:51;;;;;;;24.10;19.90;;;;;;;17.82;80.67;99564.51;111514;1221;94964;-75
2021/09/17 00:27:57;;;;;;;24.80;19.90;;;;;;;17.73;80.69;99566.58;111417;1223;107638;-75
2021/09/17 00:32:03;;;;;;;23.40;20.70;;;;;;;17.70;80.82;99565.20;111966;1209;636127;-74
2021/09/17 00:36:12;;;;;;;23.30;19.60;;;;;;;17.60;80.98;99560.15;113116;1199;93840;-74
2021/09/17 00:40:21;;;;;;;22.00;18.50;;;;;;;17.63;81.31;99558.87;112858;1203;93860;-75
2021/09/17 00:44:31;;;;;;;23.10;19.60;;;;;;;17.65;81.16;99560.47;113100;1201;108167;-75
2021/09/17 00:48:40;;;;;;;23.40;17.50;;;;;;;17.65;80.95;99559.39;112833;1203;107239;-75
2021/09/17 00:53:14;;;;;;;20.10;17.30;;;;;;;17.64;80.84;99557.35;112466;1206;108550;-75
2021/09/17 00:56:58;;;;;;;19.50;17.20;;;;;;;17.64;80.67;99560.70;112154;1212;94541;-75
2021/09/17 01:01:06;;;;;;;18.90;15.70;;;;;;;17.56;80.63;99555.29;112230;1212;94190;-74
2021/09/17 01:12:44;;;;;;;20.90;15.50;;;;;;;17.52;80.51;99541.14;111860;1211;636302;-74
2021/09/17 01:16:53;;;;;;;17.50;14.30;;;;;;;17.43;80.42;99533.75;113192;1200;95990;-74
2021/09/17 01:21:02;;;;;;;19.20;14.90;;;;;;;17.41;80.60;99537.35;113033;1203;93860;-75
2021/09/17 01:25:12;;;;;;;18.90;15.50;;;;;;;17.45;80.65;99534.83;112745;1206;106962;-74
2021/09/17 01:29:23;;;;;;;15.60;13.90;;;;;;;17.40;80.41;99534.14;112458;1209;106693;-74
2021/09/17 01:34:10;;;;;;;17.80;14.20;;;;;;;17.33;80.39;99535.85;112427;1207;110193;-75
2021/09/17 01:38:16;;;;;;;18.90;16.20;;;;;;;17.31;80.43;99530.56;112166;1212;94176;-75
2021/09/17 01:46:21;;;;;;;16.60;14.30;;;;;;;17.26;80.35;99526.73;111387;1222;109526;-75
2021/09/17 01:54:18;;;;;;;17.90;13.10;;;;;;;17.21;80.40;99527.92;111834;1211;635027;-74
2021/09/17 01:58:03;;;;;;;16.20;11.80;;;;;;;17.13;80.12;99526.75;112813;1203;93848;-76
2021/09/17 02:02:36;;;;;;;14.50;13.00;;;;;;;17.11;80.33;99526.52;112365;1209;95856;-76
2021/09/17 02:06:56;;;;;;;16.60;13.00;;;;;;;17.13;80.21;99523.55;112135;1212;106052;-75
2021/09/17 02:10:38;;;;;;;;;;;;;;;;;;;;;
2021/09/17 02:23:10;;;;;;;18.00;12.30;;;;;;;16.85;80.11;99516.05;111577;1222;94068;-75
2021/09/17 02:34:51;;;;;;;13.90;11.70;;;;;;;16.70;79.88;99504.83;113460;1196;93831;-75
2021/09/17 02:51:52;;;;;;;13.50;10.40;;;;;;;16.52;79.90;99485.65;112467;1206;106759;-75
2021/09/17 02:55:57;;;;;;;13.90;10.50;;;;;;;16.44;79.93;99484.98;112386;1209;94060;-75
2021/09/17 03:32:15;;;;;;;11.50;9.80;;;;;;;16.03;80.20;99468.65;113192;1199;93923;-75
2021/09/17 03:36:23;;;;;;;13.80;10.30;;;;;;;16.05;80.24;99468.19;112901;1203;93956;-76
2021/09/17 03:40:32;;;;;;;13.00;9.80;;;;;;;16.03;80.14;99471.64;112766;1206;107199;-74
2021/09/17 03:57:23;;;;;;;11.80;9.90;;;;;;;15.87;80.09;99474.13;112136;1214;94362;-75
2021/09/17 04:05:35;;;;;;;11.00;8.20;;;;;;;15.76;79.97;99476.95;111753;1221;108414;-73
2021/09/17 04:21:53;;;;;;;11.70;9.10;;;;;;;15.70;79.94;99470.52;113162;1200;94011;-74
2021/09/17 04:30:09;;;;;;;13.40;9.30;;;;;;;15.62;79.85;99472.21;112628;1206;108274;-75
2021/09/17 04:33:57;;;;;;;9.80;8.40;;;;;;;15.64;79.77;99471.08;112469;1208;106983;-75
2021/09/17 04:42:06;;;;;;;10.00;8.70;;;;;;;15.68;79.93;99475.34;112521;1209;94561;-75
2021/09/17 05:06:51;;;;;;;11.40;6.90;;;;;;;15.73;79.08;99482.27;111458;1222;95111;-75
2021/09/17 05:14:53;;;;;;;8.90;6.20;;;;;;;15.78;79.14;99480.67;111553;1222;106315;-76
2021/09/17 05:26:19;;;;;;;6.10;5.50;;;;;;;15.78;78.47;99487.29;111960;1209;638103;-75
2021/09/17 05:30:17;;;;;;;;;;;;;;;;;;;;;
2021/09/17 05:34:18;;;;;;;;;;;;;;;;;;;;;
2021/09/17 05:38:28;;;;;;;6.60;4.70;;;;;;;15.72;77.53;99490.52;112298;1209;107171;-74
2021/09/17 05:50:08;;;;;;;5.60;4.10;;;;;;;15.64;77.00;99490.89;111627;1221;94874;-75
2021/09/17 05:53:15;;;;;;;5.40;4.00;;;;;;;15.60;77.06;99487.59;111573;1221;93969;-77
2021/09/17 05:57:36;;;;;;;6.10;5.10;;;;;;;15.58;77.05;99487.89;111572;1221;107935;-75
2021/09/17 06:00:56;;;;;;;6.30;4.50;;;;;;;15.62;77.01;99485.58;110918;1225;107679;-74
2021/09/17 06:05:28;;;;;;;6.80;4.50;;;;;;;15.68;77.10;99489.17;110994;1225;109451;-75
2021/09/17 06:17:36;;;;;;;10.60;4.80;;;;;;;15.57;76.90;99493.00;111391;1224;109352;-75
2021/09/17 06:25:36;;;;;;;5.90;4.10;;;;;;;15.65;77.24;99493.39;111742;1221;109795;-77
2021/09/17 06:29:06;;;;;;;;;;;;;;;;;;;;;
2021/09/17 06:33:09;;;;;;;;;;;;;;;;;;;;;
2021/09/17 06:37:39;;;;;;;9.70;4.60;;;;;;;15.93;75.95;99491.73;111043;1222;110678;-75
2021/09/17 07:10:22;;;;;;;8.40;6.10;;;;;;;15.80;75.16;99481.73;112881;1204;93949;-73
2021/09/17 07:14:30;;;;;;;6.80;5.80;;;;;;;15.88;74.97;99477.54;112338;1212;108154;-74
2021/09/17 07:18:33;;;;;;;;;;;;;;;;;;;;;
2021/09/17 07:34:42;;;;;;;9.30;6.90;;;;;;;16.16;74.42;99476.33;111975;1209;636712;-75
2021/09/17 07:38:41;;;;;;;7.80;6.60;;;;;;;16.22;74.35;99475.41;113276;1196;93897;-74
2021/09/17 07:46:58;;;;;;;7.50;6.70;;;;;;;16.33;74.27;99479.91;113044;1202;105808;-78
2021/09/17 07:51:09;;;;;;;8.50;6.30;;;;;;;16.37;74.19;99475.30;112732;1204;106323;-77
2021/09/17 07:55:03;;;;;;;9.70;6.70;;;;;;;16.43;74.04;99475.23;112397;1208;108379;-77
2021/09/17 07:59:16;;;;;;;9.40;8.00;;;;;;;16.44;73.79;99475.38;112429;1209;94806;-75
2021/09/17 08:03:22;;;;;;;;;;;;;;;;;;;;;
2021/09/17 08:15:42;;;;;;;9.80;8.80;;;;;;;16.68;73.89;99470.54;112208;1208;636431;-74
2021/09/17 08:19:55;;;;;;;10.80;8.80;;;;;;;16.68;73.66;99467.75;113255;1198;93860;-77
2021/09/17 08:24:09;;;;;;;12.90;9.40;;;;;;;16.68;73.46;99467.57;113022;1200;94012;-76
2021/09/17 08:28:16;;;;;;;10.90;9.60;;;;;;;16.67;73.57;99467.60;112984;1202;106128;-77
2021/09/17 08:32:34;;;;;;;14.10;11.70;;;;;;;16.67;73.50;99465.89;112727;1205;106422;-75
2021/09/17 08:52:58;;;;;;;19.40;17.20;;;;;;;16.59;73.60;99466.57;111813;1211;634870;-74
2021/09/17 08:57:14;;;;;;;22.60;19.00;;;;;;;16.60;73.74;99467.35;113239;1200;94156;-72
2021/09/17 09:01:21;;;;;;;;;;;;;;;;;;;;;
2021/09/17 09:05:36;;;;;;;20.40;18.30;;;;;;;16.63;73.79;99476.69;112790;1205;107074;-73
2021/09/17 09:10:24;;;;;;;21.70;17.80;;;;;;;16.60;73.64;99471.97;112562;1206;108747;-74
2021/09/17 09:14:07;;;;;;;22.40;19.70;;;;;;;16.66;73.80;99470.14;112479;1206;108651;-74
2021/09/17 09:26:27;;;;;;;;;;;;;;;;;;;;;
2021/09/17 09:30:54;;;;;;;23.90;21.40;;;;;;;17.05;73.14;99466.88;112076;1212;107925;-75
2021/09/17 09:38:21;;;;;;;;;;;;;;;;;;;;;
2021/09/17 09:42:31;;;;;;;28.70;25.90;;;;;;;17.37;72.82;99468.95;113119;1198;94772;-75
2021/09/17 09:47:02;;;;;;;30.30;26.90;;;;;;;17.40;72.38;99466.59;113135;1200;108162;-72
2021/09/17 09:50:50;;;;;;;;;;;;;;;;;;;;;
2021/09/17 09:55:02;;;;;;;31.40;28.40;;;;;;;17.36;72.27;99475.02;112730;1204;108582;-73
2021/09/17 09:59:04;;;;;;;;;;;;;;;;;;;;;
2021/09/17 10:03:03;;;;;;;;;;;;;;;;;;;;;
2021/09/17 10:07:06;;;;;;;;;;;;;;;;;;;;;
2021/09/17 10:15:02;;;;;;;;;;;;;;;;;;;;;
2021/09/17 10:19:13;;;;;;;;;;;;;;;;;;;;;
2021/09/17 10:23:05;;;;;;;;;;;;;;;;;;;;;
2021/09/17 10:27:15;;;;;;;29.40;26.60;;;;;;;17.91;71.49;99462.05;113156;1200;93986;-74
2021/09/17 10:31:17;;;;;;;29.10;26.20;;;;;;;18.16;71.49;99455.36;112885;1204;93935;-75
2021/09/17 10:35:09;;;;;;;;;;;;;;;;;;;;;
2021/09/17 10:39:20;;;;;;;23.70;21.40;;;;;;;18.70;70.72;99452.30;112243;1210;106305;-75
2021/09/17 10:48:45;;;;;;;24.00;21.80;;;;;;;19.12;69.37;99449.65;111955;1216;94046;-74
2021/09/17 10:56:45;;;;;;;;;;;;;;;;;;;;;
2021/09/17 11:01:16;;;;;;;22.10;19.90;;;;;;;19.62;68.83;99445.23;111052;1224;106196;-74
2021/09/17 11:13:17;;;;;;;;;;;;;;;;;;;;;
2021/09/17 11:17:22;;;;;;;;;;;;;;;;;;;;;
2021/09/17 11:26:08;;;;;;;13.30;12.00;;;;;;;20.56;65.61;99430.77;111909;1217;109625;-76
2021/09/17 11:30:05;;;;;;;;;;;;;;;;;;;;;
2021/09/17 11:34:00;;;;;;;14.90;10.50;;;;;;;20.56;65.66;99429.05;112076;1212;94856;-77
2021/09/17 11:37:08;;;;;;;11.30;9.50;;;;;;;20.63;65.39;99420.70;112228;1210;107908;-77
2021/09/17 11:40:43;;;;;;;10.10;8.70;;;;;;;20.73;65.36;99418.83;112316;1209;108147;-75
2021/09/17 11:47:34;;;;;;;9.90;8.90;;;;;;;20.84;64.12;99422.31;112294;1209;95245;-78
2021/09/17 11:51:31;;;;;;;7.70;7.10;;;;;;;20.88;63.87;99424.83;112556;1206;94752;-77
2021/09/17 11:55:37;;;;;;;7.60;6.80;;;;;;;20.92;63.51;99424.95;112561;1206;110109;-76
2021/09/17 11:59:07;;;;;;;9.30;6.80;;;;;;;20.92;62.92;99416.88;112513;1206;108004;-76
2021/09/17 12:03:02;;;;;;;;;;;;;;;;;;;;;
2021/09/17 12:07:01;;;;;;;;;;;;;;;;;;;;;
2021/09/17 12:10:44;;;;;;;;;;;;;;;;;;;;;
2021/09/17 12:14:37;;;;;;;6.80;6.10;;;;;;;21.82;60.82;99397.06;112991;1201;108433;-77
2021/09/17 12:18:36;;;;;;;6.50;5.90;;;;;;;21.84;60.63;99399.54;112791;1203;106345;-76
2021/09/17 12:22:15;;;;;;;6.50;5.90;;;;;;;21.88;60.75;99394.75;112835;1203;108517;-76
2021/09/17 12:26:02;;;;;;;;;;;;;;;;;;;;;
2021/09/17 12:29:21;;;;;;;7.70;6.90;;;;;;;21.94;59.71;99396.27;112590;1209;95031;-76
2021/09/17 12:32:45;;;;;;;7.80;6.80;;;;;;;21.97;59.51;99397.10;112488;1208;109658;-76
2021/09/17 12:36:23;;;;;;;;;;;;;;;;;;;;;
2021/09/17 12:40:07;;;;;;;7.50;6.90;;;;;;;21.96;59.56;99400.20;112367;1208;108707;-75
2021/09/17 12:43:14;;;;;;;8.30;7.50;;;;;;;21.99;59.28;99393.58;112497;1208;94751;-76
2021/09/17 12:46:39;;;;;;;;;;;;;;;;;;;;;
2021/09/17 12:49:47;;;;;;;7.70;6.90;;;;;;;21.86;59.18;99384.31;112500;1208;109607;-77
2021/09/17 12:53:30;;;;;;;;;;;;;;;;;;;;;
2021/09/17 12:56:58;;;;;;;7.00;6.30;;;;;;;21.75;59.24;99377.41;112398;1208;107755;-76
2021/09/17 13:00:46;;;;;;;7.40;6.70;;;;;;;21.78;58.85;99381.90;112478;1208;94995;-76
2021/09/17 13:04:45;;;;;;;6.60;5.90;;;;;;;21.77;59.00;99377.38;112472;1208;94853;-76
2021/09/17 13:08:33;;;;;;;6.10;5.60;;;;;;;21.69;58.42;99379.55;112763;1205;108550;-77
2021/09/17 13:16:20;;;;;;;7.00;6.30;;;;;;;21.46;58.67;99380.02;112525;1203;107529;-76
2021/09/17 13:20:09;;;;;;;7.50;6.50;;;;;;;21.39;58.71;99382.23;112440;1208;94991;-75
2021/09/17 13:23:39;;;;;;;6.70;6.00;;;;;;;21.34;58.81;99384.83;112511;1206;94840;-76
2021/09/17 13:27:17;;;;;;;8.30;6.20;;;;;;;21.30;58.87;99386.80;112267;1211;107291;-76
2021/09/17 13:31:31;;;;;;;7.10;6.50;;;;;;;21.27;58.88;99390.10;112210;1211;107369;-73
2021/09/17 13:34:25;;;;;;;7.20;6.60;;;;;;;21.11;58.96;99392.50;112184;1211;108794;-77
2021/09/17 13:37:52;;;;;;;7.00;6.30;;;;;;;21.00;59.32;99397.09;112128;1211;94891;-76
2021/09/17 13:42:21;;;;;;;;;;;;;;;;;;;;;
2021/09/17 13:46:39;;;;;;;6.80;6.20;;;;;;;20.71;59.93;99396.95;112089;1214;110515;-77
2021/09/17 13:49:23;;;;;;;8.40;6.80;;;;;;;20.55;60.08;99389.19;111915;1213;106212;-76
2021/09/17 13:57:00;;;;;;;7.80;7.10;;;;;;;20.39;60.70;99386.53;112208;1210;93918;-76
2021/09/17 14:05:06;;;;;;;;;;;;;;;;;;;;;
2021/09/17 14:09:11;;;;;;;;;;;;;;;;;;;;;
2021/09/17 14:13:00;;;;;;;6.90;6.10;;;;;;;20.11;61.18;99382.77;112079;1213;108480;-77
2021/09/17 14:17:16;;;;;;;;;;;;;;;;;;;;;
2021/09/17 14:25:37;;;;;;;6.40;5.80;;;;;;;19.94;61.23;99384.92;111638;1219;109283;-77
2021/09/17 14:29:08;;;;;;;;;;;;;;;;;;;;;
2021/09/17 14:33:03;;;;;;;;;;;;;;;;;;;;;
2021/09/17 14:37:15;;;;;;;8.00;7.10;;;;;;;19.91;62.02;99381.41;111977;1209;636463;-78
2021/09/17 14:40:48;;;;;;;6.70;6.00;;;;;;;19.95;62.08;99382.76;113169;1198;95135;-77
2021/09/17 14:44:04;;;;;;;6.00;5.50;;;;;;;20.03;62.19;99378.17;113640;1195;94036;-79
2021/09/17 14:47:33;;;;;;;;;;;;;;;;;;;;;
2021/09/17 14:51:39;;;;;;;7.70;5.40;;;;;;;20.27;62.16;99377.32;113185;1198;107200;-78
2021/09/17 14:55:09;;;;;;;5.80;5.30;;;;;;;20.37;61.93;99374.81;112764;1203;106805;-77
2021/09/17 14:58:48;;;;;;;;;;;;;;;;;;;;;
2021/09/17 15:03:20;;;;;;;5.50;4.90;;;;;;;20.55;61.75;99371.88;112625;1206;93837;-75
2021/09/17 15:06:19;;;;;;;;;;;;;;;;;;;;;
2021/09/17 15:09:37;;;;;;;6.70;4.50;;;;;;;20.64;61.29;99371.07;112498;1207;107482;-78
2021/09/17 15:14:11;;;;;;;5.10;4.20;;;;;;;20.66;61.41;99367.64;112534;1206;107612;-77
2021/09/17 15:17:54;;;;;;;;;;;;;;;;;;;;;
2021/09/17 15:21:33;;;;;;;;;;;;;;;;;;;;;
2021/09/17 15:26:03;;;;;;;4.90;4.50;;;;;;;20.57;61.10;99362.23;111947;1216;108389;-77
2021/09/17 15:33:23;;;;;;;4.90;4.50;;;;;;;20.49;61.22;99370.77;111764;1218;109224;-77
2021/09/17 15:36:25;;;;;;;4.30;3.70;;;;;;;20.39;61.46;99370.23;111798;1219;95463;-78
2021/09/17 15:44:28;;;;;;;;;;;;;;;;;;;;;
2021/09/17 15:48:25;;;;;;;;;;;;;;;;;;;;;
2021/09/17 15:52:47;;;;;;;6.00;5.20;;;;;;;19.92;62.44;99377.98;111997;1208;635369;-76
2021/09/17 15:56:44;;;;;;;;;;;;;;;;;;;;;
2021/09/17 16:00:56;;;;;;;6.30;5.20;;;;;;;19.55;63.32;99377.89;112588;1204;95079;-76
2021/09/17 16:08:54;;;;;;;;;;;;;;;;;;;;;
2021/09/17 16:12:52;;;;;;;;;;;;;;;;;;;;;
2021/09/17 16:16:38;;;;;;;5.40;4.10;;;;;;;18.98;64.29;99392.78;111977;1217;93720;-75
2021/09/17 16:25:15;;;;;;;7.10;5.10;;;;;;;18.77;65.23;99399.07;111911;1209;635414;-76
2021/09/17 16:29:16;;;;;;;6.00;4.80;;;;;;;18.67;65.36;99396.53;112931;1201;94114;-77
2021/09/17 16:33:26;;;;;;;7.00;6.10;;;;;;;18.59;65.82;99395.88;112446;1209;93977;-79
2021/09/17 16:38:15;;;;;;;5.30;4.80;;;;;;;18.51;66.00;99396.89;112224;1210;136281;-78
2021/09/17 16:41:45;;;;;;;;;;;;;;;;;;;;;
2021/09/17 16:46:27;;;;;;;5.40;4.30;;;;;;;18.37;66.59;99392.31;112032;1215;109070;-78
2021/09/17 16:49:59;;;;;;;;;;;;;;;;;;;;;
2021/09/17 16:54:28;;;;;;;5.40;4.50;;;;;;;18.18;67.06;99384.52;111944;1218;94137;-80
2021/09/17 16:58:36;;;;;;;5.70;4.50;;;;;;;18.08;67.30;99381.23;112002;1217;108010;-79
2021/09/17 17:02:42;;;;;;;5.30;4.60;;;;;;;18.00;67.59;99385.86;111648;1221;137437;-78
2021/09/17 17:05:55;;;;;;;;;;;;;;;;;;;;;
2021/09/17 17:10:02;;;;;;;;;;;;;;;;;;;;;
2021/09/17 17:14:34;;;;;;;4.80;3.90;;;;;;;17.89;68.11;99381.80;111973;1215;136955;-78
2021/09/17 17:34:37;;;;;;;;;;;;;;;;;;;;;
2021/09/17 17:38:18;;;;;;;;;;;;;;;;;;;;;
2021/09/17 17:42:29;;;;;;;6.30;5.20;;;;;;;17.73;68.94;99401.09;113051;1203;93933;-78
2021/09/17 17:59:26;;;;;;;7.00;4.40;;;;;;;17.47;69.38;99406.02;111954;1213;136428;-79
2021/09/17 18:03:23;;;;;;;6.70;4.60;;;;;;;17.43;69.55;99405.11;111981;1215;137316;-78
2021/09/17 18:10:52;;;;;;;7.10;4.50;;;;;;;17.39;69.80;99402.90;111899;1210;635756;-77
2021/09/17 18:15:04;;;;;;;3.80;3.10;;;;;;;17.30;69.75;99405.35;113042;1200;136835;-78
2021/09/17 18:19:14;;;;;;;4.90;3.50;;;;;;;17.25;69.85;99409.27;112879;1203;94060;-76
2021/09/17 18:23:24;;;;;;;4.30;3.40;;;;;;;17.16;70.00;99406.40;112397;1208;135980;-77
2021/09/17 18:27:57;;;;;;;4.20;3.60;;;;;;;17.13;70.04;99412.90;112171;1211;136151;-78
2021/09/17 18:32:19;;;;;;;4.80;3.90;;;;;;;17.07;70.33;99413.33;112085;1212;107447;-76
2021/09/17 18:36:23;;;;;;;5.70;3.90;;;;;;;17.00;70.43;99411.42;111918;1217;94087;-77
2021/09/17 18:40:29;;;;;;;4.60;4.10;;;;;;;16.90;70.77;99409.31;111752;1218;136799;-77
2021/09/17 18:43:59;;;;;;;;;;;;;;;;;;;;;
2021/09/17 18:56:32;;;;;;;;;;;;;;;;;;;;;
2021/09/17 19:00:43;;;;;;;9.30;6.00;;;;;;;16.66;72.03;99414.84;113086;1200;94007;-78
2021/09/17 19:04:52;;;;;;;8.60;6.70;;;;;;;16.73;72.22;99415.46;112845;1203;136749;-80
2021/09/17 19:08:59;;;;;;;;;;;;;;;;;;;;;
2021/09/17 19:29:41;;;;;;;8.90;7.40;;;;;;;16.59;73.21;99412.33;111876;1211;637666;-80
2021/09/17 19:33:52;;;;;;;7.90;7.00;;;;;;;16.53;73.52;99410.13;112845;1206;93918;-79
2021/09/17 19:37:33;;;;;;;9.70;7.80;;;;;;;16.47;73.90;99409.52;112177;1212;93861;-78
2021/09/17 19:41:40;;;;;;;;;;;;;;;;;;;;;
2021/09/17 19:46:35;;;;;;;9.10;7.50;;;;;;;16.41;74.26;99407.13;112107;1214;108249;-79
2021/09/17 19:58:36;;;;;;;;;;;;;;;;;;;;;
2021/09/17 20:03:17;;;;;;;8.60;7.40;;;;;;;16.46;74.55;99416.95;111970;1210;636452;-80
2021/09/17 20:07:27;;;;;;;11.80;9.80;;;;;;;16.49;74.76;99420.45;113120;1200;136677;-81
2021/09/17 20:11:54;;;;;;;8.00;7.20;;;;;;;16.50;74.76;99417.90;113168;1201;93810;-82
2021/09/17 20:26:51;;;;;;;;;;;;;;;16.44;74.71;99418.34;114583;1196;136503;-82
2021/09/17 20:39:15;;;;;;;6.60;6.00;;;;;;;16.33;74.92;99418.17;114010;1203;137340;-80
2021/09/17 20:43:49;;;;;;;6.50;5.90;;;;;;;16.29;75.02;99414.93;113424;1212;138396;-80
2021/09/17 20:47:29;;;;;;;5.60;5.00;;;;;;;16.28;75.10;99414.27;113565;1212;92990;-80
2021/09/17 20:51:01;;;;;;;6.50;5.50;;;;;;;16.32;75.02;99420.50;113527;1212;136722;-80
2021/09/17 20:55:10;;;;;;;6.00;5.40;;;;;;;16.30;74.92;99421.73;113622;1212;108446;-81
2021/09/17 21:03:31;;;;;;;;;;;;;;;;;;;;;
2021/09/17 21:15:36;;;;;;;;;;;;;;;;;;;;;
2021/09/17 21:23:50;;;;;;;;;;;;;;;;;;;;;
2021/09/17 21:27:47;;;;;;;;;;;;;;;;;;;;;
2021/09/17 21:32:30;;;;;;;5.60;5.10;;;;;;;16.15;74.94;99425.73;112529;1223;93071;-79
2021/09/17 21:39:21;;;;;;;;;;;;;;;;;;;;;
2021/09/17 21:43:20;;;;;;;7.10;6.30;;;;;;;16.12;75.14;99424.73;113364;1197;93836;-78
2021/09/17 21:47:33;;;;;;;6.30;5.70;;;;;;;16.10;75.35;99422.92;113007;1201;136019;-80
2021/09/17 21:51:43;;;;;;;6.10;5.50;;;;;;;16.10;75.38;99425.77;112731;1204;137205;-80
2021/09/17 21:59:53;;;;;;;;;;;;;;;;;;;;;
2021/09/17 22:04:40;;;;;;;6.70;5.60;;;;;;;15.99;75.68;99413.32;112029;1216;137027;-76
2021/09/17 22:08:14;;;;;;;;;;;;;;;;;;;;;
2021/09/17 22:16:18;;;;;;;;;;;;;;;;;;;;;
2021/09/17 22:20:22;;;;;;;;;;;;;;;;;;;;;
2021/09/17 22:32:59;;;;;;;9.00;8.00;;;;;;;15.98;76.17;99406.40;111887;1218;109867;-76
2021/09/17 22:41:11;;;;;;;7.80;7.00;;;;;;;15.97;76.32;99406.09;111712;1218;137680;-77
2021/09/17 22:45:16;;;;;;;8.90;8.00;;;;;;;16.00;76.33;99404.69;111805;1218;94991;-75
2021/09/17 22:53:29;;;;;;;8.60;7.50;;;;;;;15.98;76.17;99402.91;111226;1224;138256;-75
2021/09/17 22:57:35;;;;;;;9.20;8.20;;;;;;;15.94;76.36;99398.91;111200;1224;108202;-76
2021/09/17 23:01:40;;;;;;;10.30;9.30;;;;;;;15.89;76.33;99397.02;111028;1224;136972;-76
2021/09/17 23:06:10;;;;;;;13.10;10.60;;;;;;;15.86;76.38;99393.53;111921;1209;636556;-76
2021/09/17 23:10:19;;;;;;;12.00;10.80;;;;;;;15.82;76.53;99387.50;112978;1202;94166;-77
2021/09/17 23:14:28;;;;;;;13.00;11.60;;;;;;;15.82;76.63;99392.08;113197;1201;93892;-75
2021/09/17 23:18:12;;;;;;;12.90;11.60;;;;;;;15.80;76.78;99391.88;112402;1208;136569;-77
2021/09/17 23:35:09;;;;;;;13.30;11.60;;;;;;;15.78;77.01;99387.03;111919;1218;93971;-76
2021/09/17 23:39:15;;;;;;;11.60;10.40;;;;;;;15.78;77.19;99388.96;111918;1219;108377;-76
2021/09/17 23:54:28;;;;;;;;;;;;;;;;;;;;;
2021/09/17 23:58:39;;;;;;;13.00;11.00;;;;;;;15.78;77.17;99384.83;113825;1196;93906;-76
